• Join FlightAware (Why Join?)
  • Login
  • US Flag 
10:53AM EDT


 

Airport Tracker/Info


-or-


 

Live Flight TrackerFlight Track Log ✈ AWE3374 ✈ 26-Sep-2013 ✈ KBUF - KDCA

Flight Track Log - Related Links

Times and Time Zones

All times are in EDT time to prevent confusion due to time zone crossing. See the AWE3374 flight status page for this flight to view local times or setup timezone preferences in your user account.

Time Position Orientation Groundspeed Altitude Reporting Facility
EDT Latitude Longitude Course Direction KTS MPH feet Rate Location/Type
12:20PM 42.9500 -78.7167 180° South 153 176 1,600  Level Buffalo TRACON
12:21PM 42.9333 -78.6667 114° Southeast 224 258 3,100 2,160 Climbing Buffalo TRACON
12:22PM 42.8314 -78.6689 181° South 262 302 6,600 2,760 Climbing Cleveland Center
12:23PM 42.4683 -78.5235 174° South  Level Estimated
12:23PM 42.7447 -78.6639 178° South 292 336 9,900  Level Cleveland Center
12:24PM 42.3734 -78.4822 180° South  Level Estimated
12:24PM 42.6642 -78.6575 177° South 312 359 12,600  Level Cleveland Center
12:25PM 42.2785 -78.4411 180° South  Level Estimated
12:25PM 42.5464 -78.6514 178° South 354 407 15,500  Level Cleveland Center
12:26PM 42.4444 -78.6436 177° South 370 426 17,700 2,160 Climbing Cleveland Center
12:27PM 42.3358 -78.6372 178° South 393 452 20,000 2,160 Climbing Cleveland Center
12:28PM 42.2283 -78.6206 173° South 406 467 22,300 2,460 Climbing Cleveland Center
12:29PM 42.1175 -78.5675 160° South 396 456 25,200 2,220 Climbing Cleveland Center
12:31PM 42.0142 -78.5169 160° South 394 453 27,000 840 Climbing Cleveland Center
12:32PM 41.9092 -78.4664 160° South 400 460 27,000  Level Cleveland Center
12:33PM 41.8072 -78.4153 160° South 396 456 27,000  Level Cleveland Center
12:34PM 41.6850 -78.3578 161° South 391 450 27,000  Level Cleveland Center
12:35PM 41.5828 -78.3108 161° South 391 450 27,000  Level Cleveland Center
12:36PM 41.4803 -78.2611 160° South 393 452 27,000  Level Cleveland Center
12:37PM 41.3781 -78.2119 160° South 392 451 27,000  Level Cleveland Center
12:37PM 41.3172 -78.1828 160° South 393 452 27,000 -480 Level New York Center
12:38PM 41.2158 -78.1358 161° South 405 466 26,300 -780 Descending New York Center
12:39PM 41.1167 -78.0892 160° South 395 455 25,500 -900 Descending New York Center
12:40PM 41.0558 -78.0589 159° South 381 438 25,000 -360 Descending Cleveland Center
12:41PM 40.9561 -78.0108 160° South 381 438 25,000  Level Cleveland Center
12:42PM 40.8686 -77.9375 148° Southeast 384 442 25,000 -240 Level Cleveland Center
12:43PM 40.7833 -77.8419 140° Southeast 402 463 24,600 -1,260 Descending Cleveland Center
12:44PM 40.6972 -77.7442 139° Southeast 410 472 22,400 -2,280 Descending Cleveland Center
12:45PM 40.5994 -77.6336 139° Southeast 395 455 20,000 -2,160 Descending Cleveland Center
12:46PM 40.5197 -77.5433 139° Southeast 383 441 18,000 -1,020 Descending Cleveland Center
12:47PM 40.4417 -77.4569 140° Southeast 374 430 18,000  Level Cleveland Center
12:48PM 40.3711 -77.3775 139° Southeast 344 396 18,000  Level Cleveland Center
12:49PM 40.3008 -77.2989 140° Southeast 336 387 18,000  Level Cleveland Center
12:50PM 40.2106 -77.2464 156° South 342 394 18,000  Level Cleveland Center
12:51PM 40.0997 -77.1836 157° South 338 389 18,000  Level New York Center
12:52PM 40.0028 -77.1258 155° Southeast 370 426 18,000  Level New York Center
12:53PM 39.9178 -77.0775 156° South 376 433 18,000 -120 Level New York Center
12:54PM 39.8103 -77.0192 157° South 376 433 17,800 -600 Descending New York Center
12:55PM 39.7253 -76.9711 156° South 376 433 16,900 -1,380 Descending New York Center
12:56PM 39.6167 -76.9167 159° South 363 418 15,200 -1,920 Descending Potomac TRACON
12:57PM 39.5333 -76.8667 155° Southeast 354 407 13,200 -1,740 Descending Potomac TRACON
12:58PM 39.4500 -76.8167 155° Southeast 345 397 12,000 -1,140 Descending Potomac TRACON
12:59PM 39.3667 -76.7667 155° Southeast 350 403 11,100 -1,020 Descending Potomac TRACON
01:00PM 39.2833 -76.7167 155° Southeast 339 390 10,000 -600 Descending Potomac TRACON
01:01PM 39.2000 -76.6833 163° South 302 348 10,000  Level Potomac TRACON
01:02PM 39.1333 -76.7167 201° Southwest 304 350 10,000 -180 Level Potomac TRACON
01:03PM 39.0667 -76.7833 218° Southwest 299 344 9,700 -1,080 Descending Potomac TRACON
01:04PM 39.0167 -76.8500 226° Southwest 298 343 8,000 -1,800 Descending Potomac TRACON
01:05PM 38.9500 -76.9167 218° Southwest 285 328 6,300 -1,020 Descending Potomac TRACON
01:06PM 38.8667 -76.9500 197° South 290 334 6,000 -180 Descending Potomac TRACON
01:07PM 38.8000 -76.9500 180° South 235 270 6,000 -600 Level Potomac TRACON
01:09PM 38.6833 -76.9333 174° South 211 243 4,200 -960 Descending Potomac TRACON
01:10PM 38.6833 -77.0000 270° West 197 227 3,200 -1,020 Descending Potomac TRACON
01:11PM 38.7333 -77.0333 333° Northwest 176 203 2,200 -960 Descending Potomac TRACON
01:12PM 38.7833 -77.0333 360° North 171 197 1,300 -840 Descending Potomac TRACON
01:13PM 38.8167 -77.0333 360° North 129 148 600 -720 Descending Potomac TRACON